sensor_id;sensor_type;location;lat;lon;timestamp;pressure;altitude;pressure_sealevel;temperature;humidity
5550;BME280;2798;42.716;23.256;2024-01-15T00:01:43;94148.09;;;0.82;77.58
5550;BME280;2798;42.716;23.256;2024-01-15T00:04:09;94149.66;;;0.84;77.18
5550;BME280;2798;42.716;23.256;2024-01-15T00:06:34;94139.25;;;0.71;77.57
5550;BME280;2798;42.716;23.256;2024-01-15T00:09:00;94130.56;;;0.77;77.15
5550;BME280;2798;42.716;23.256;2024-01-15T00:11:26;94140.50;;;0.82;77.35
5550;BME280;2798;42.716;23.256;2024-01-15T00:13:52;94115.72;;;0.69;76.80
5550;BME280;2798;42.716;23.256;2024-01-15T00:16:17;94125.66;;;0.74;77.33
5550;BME280;2798;42.716;23.256;2024-01-15T00:18:43;94141.91;;;0.68;77.10
5550;BME280;2798;42.716;23.256;2024-01-15T00:21:09;94140.00;;;0.73;76.95
5550;BME280;2798;42.716;23.256;2024-01-15T00:23:34;94145.47;;;0.64;77.99
5550;BME280;2798;42.716;23.256;2024-01-15T00:26:00;94142.81;;;0.67;77.20
5550;BME280;2798;42.716;23.256;2024-01-15T00:28:25;94140.47;;;0.63;77.54
5550;BME280;2798;42.716;23.256;2024-01-15T00:30:51;94116.13;;;0.39;76.89
5550;BME280;2798;42.716;23.256;2024-01-15T00:33:16;94140.16;;;0.70;76.44
5550;BME280;2798;42.716;23.256;2024-01-15T00:35:42;94151.13;;;0.71;76.70
5550;BME280;2798;42.716;23.256;2024-01-15T00:38:07;94143.63;;;0.68;76.70
5550;BME280;2798;42.716;23.256;2024-01-15T00:40:33;94148.66;;;0.69;77.37
5550;BME280;2798;42.716;23.256;2024-01-15T00:42:58;94135.34;;;0.64;77.27
5550;BME280;2798;42.716;23.256;2024-01-15T00:45:24;94137.13;;;0.62;76.86
5550;BME280;2798;42.716;23.256;2024-01-15T00:47:50;94134.78;;;0.57;76.98
5550;BME280;2798;42.716;23.256;2024-01-15T00:50:15;94137.13;;;0.62;76.71
5550;BME280;2798;42.716;23.256;2024-01-15T00:52:41;94140.34;;;0.66;77.23
5550;BME280;2798;42.716;23.256;2024-01-15T00:55:06;94135.47;;;0.61;77.57
5550;BME280;2798;42.716;23.256;2024-01-15T00:57:32;94137.75;;;0.67;76.87
5550;BME280;2798;42.716;23.256;2024-01-15T00:59:58;94130.22;;;0.66;77.52
5550;BME280;2798;42.716;23.256;2024-01-15T01:02:23;94139.25;;;0.71;77.75
5550;BME280;2798;42.716;23.256;2024-01-15T01:04:49;94135.97;;;0.69;77.37
5550;BME280;2798;42.716;23.256;2024-01-15T01:07:14;94135.63;;;0.58;77.42
5550;BME280;2798;42.716;23.256;2024-01-15T01:09:40;94131.09;;;0.65;77.03
5550;BME280;2798;42.716;23.256;2024-01-15T01:12:06;94128.69;;;0.61;77.33
5550;BME280;2798;42.716;23.256;2024-01-15T01:14:32;94127.88;;;0.61;77.30
5550;BME280;2798;42.716;23.256;2024-01-15T01:16:57;94132.06;;;0.62;77.31
5550;BME280;2798;42.716;23.256;2024-01-15T01:19:23;94126.72;;;0.68;77.21
5550;BME280;2798;42.716;23.256;2024-01-15T01:21:50;94135.22;;;0.67;77.03
5550;BME280;2798;42.716;23.256;2024-01-15T01:24:16;94109.19;;;0.64;77.23
5550;BME280;2798;42.716;23.256;2024-01-15T01:26:42;94123.41;;;0.66;76.81
5550;BME280;2798;42.716;23.256;2024-01-15T01:29:07;94070.63;;;0.38;77.48
5550;BME280;2798;42.716;23.256;2024-01-15T01:31:32;94103.91;;;0.49;77.41
5550;BME280;2798;42.716;23.256;2024-01-15T01:33:58;94109.06;;;0.67;77.25
5550;BME280;2798;42.716;23.256;2024-01-15T01:36:24;94108.34;;;0.63;77.13
5550;BME280;2798;42.716;23.256;2024-01-15T01:38:49;94102.50;;;0.63;77.14
5550;BME280;2798;42.716;23.256;2024-01-15T01:41:15;94110.50;;;0.53;76.81
5550;BME280;2798;42.716;23.256;2024-01-15T01:43:40;94096.09;;;0.54;77.39
5550;BME280;2798;42.716;23.256;2024-01-15T01:46:06;94086.09;;;0.51;76.93
5550;BME280;2798;42.716;23.256;2024-01-15T01:48:32;94100.91;;;0.60;76.93
5550;BME280;2798;42.716;23.256;2024-01-15T01:51:00;94099.13;;;0.62;76.57
5550;BME280;2798;42.716;23.256;2024-01-15T01:53:27;94100.75;;;0.63;77.18
5550;BME280;2798;42.716;23.256;2024-01-15T01:55:55;94065.22;;;0.45;76.44
5550;BME280;2798;42.716;23.256;2024-01-15T01:58:22;94084.13;;;0.57;76.90
5550;BME280;2798;42.716;23.256;2024-01-15T02:00:48;94089.34;;;0.54;76.77
5550;BME280;2798;42.716;23.256;2024-01-15T02:03:14;94089.34;;;0.54;76.85
5550;BME280;2798;42.716;23.256;2024-01-15T02:05:40;94090.84;;;0.58;76.42
5550;BME280;2798;42.716;23.256;2024-01-15T02:08:08;94073.72;;;0.44;76.82
5550;BME280;2798;42.716;23.256;2024-01-15T02:10:33;94075.22;;;0.48;76.53
5550;BME280;2798;42.716;23.256;2024-01-15T02:12:59;94079.06;;;0.57;76.43
5550;BME280;2798;42.716;23.256;2024-01-15T02:15:25;94063.13;;;0.55;76.59
5550;BME280;2798;42.716;23.256;2024-01-15T02:20:22;94062.31;;;0.55;77.24
5550;BME280;2798;42.716;23.256;2024-01-15T02:22:47;94034.47;;;0.55;76.20
5550;BME280;2798;42.716;23.256;2024-01-15T02:25:13;94004.94;;;0.34;76.56
5550;BME280;2798;42.716;23.256;2024-01-15T02:27:38;94026.72;;;0.58;76.16
5550;BME280;2798;42.716;23.256;2024-01-15T02:30:05;94087.75;;;0.52;76.04
5550;BME280;2798;42.716;23.256;2024-01-15T02:32:31;94017.19;;;0.44;76.89
5550;BME280;2798;42.716;23.256;2024-01-15T02:34:56;94003.50;;;0.29;76.41
5550;BME280;2798;42.716;23.256;2024-01-15T02:37:22;94025.97;;;0.36;76.07
5550;BME280;2798;42.716;23.256;2024-01-15T02:39:47;94030.53;;;0.47;76.21
5550;BME280;2798;42.716;23.256;2024-01-15T02:42:13;94035.75;;;0.44;76.51
5550;BME280;2798;42.716;23.256;2024-01-15T02:44:38;94033.34;;;0.41;76.57
5550;BME280;2798;42.716;23.256;2024-01-15T02:47:04;94019.78;;;0.42;76.20
5550;BME280;2798;42.716;23.256;2024-01-15T02:49:30;94040.59;;;0.49;76.30
5550;BME280;2798;42.716;23.256;2024-01-15T02:51:57;94053.47;;;0.44;76.52
5550;BME280;2798;42.716;23.256;2024-01-15T02:54:23;94029.50;;;0.52;76.21
5550;BME280;2798;42.716;23.256;2024-01-15T02:56:48;94029.56;;;0.50;76.43
5550;BME280;2798;42.716;23.256;2024-01-15T02:59:14;94029.03;;;0.43;76.78
5550;BME280;2798;42.716;23.256;2024-01-15T03:01:39;94021.91;;;0.32;77.32
5550;BME280;2798;42.716;23.256;2024-01-15T03:04:04;94027.38;;;0.42;76.44
5550;BME280;2798;42.716;23.256;2024-01-15T03:06:30;94032.03;;;0.52;76.22
5550;BME280;2798;42.716;23.256;2024-01-15T03:08:55;94027.03;;;0.50;76.52
5550;BME280;2798;42.716;23.256;2024-01-15T03:11:21;94025.75;;;0.41;76.59
5550;BME280;2798;42.716;23.256;2024-01-15T03:13:46;94017.31;;;0.41;76.54
5550;BME280;2798;42.716;23.256;2024-01-15T03:16:12;94008.22;;;0.36;76.74
5550;BME280;2798;42.716;23.256;2024-01-15T03:18:37;94010.69;;;0.38;76.81
5550;BME280;2798;42.716;23.256;2024-01-15T03:21:04;94000.91;;;0.30;76.77
5550;BME280;2798;42.716;23.256;2024-01-15T03:23:30;93989.13;;;0.29;76.83
5550;BME280;2798;42.716;23.256;2024-01-15T03:25:55;94010.34;;;0.46;75.92
5550;BME280;2798;42.716;23.256;2024-01-15T03:28:21;94003.88;;;0.40;76.61
5550;BME280;2798;42.716;23.256;2024-01-15T03:30:46;94007.97;;;0.43;76.28
5550;BME280;2798;42.716;23.256;2024-01-15T03:33:12;94005.28;;;0.46;76.36
5550;BME280;2798;42.716;23.256;2024-01-15T03:35:37;94004.00;;;0.37;76.43
5550;BME280;2798;42.716;23.256;2024-01-15T03:38:03;94009.66;;;0.42;77.04
5550;BME280;2798;42.716;23.256;2024-01-15T03:40:28;94005.50;;;0.41;76.86
5550;BME280;2798;42.716;23.256;2024-01-15T03:42:54;94002.28;;;0.38;76.95
5550;BME280;2798;42.716;23.256;2024-01-15T03:45:19;94014.66;;;0.44;77.26
5550;BME280;2798;42.716;23.256;2024-01-15T03:47:45;93997.06;;;0.41;76.36
5550;BME280;2798;42.716;23.256;2024-01-15T03:50:10;94010.44;;;0.44;76.65
5550;BME280;2798;42.716;23.256;2024-01-15T03:52:36;93927.16;;;-0.01;76.73
5550;BME280;2798;42.716;23.256;2024-01-15T03:55:01;93924.22;;;-0.10;77.13
5550;BME280;2798;42.716;23.256;2024-01-15T03:57:27;93991.06;;;0.43;76.65
5550;BME280;2798;42.716;23.256;2024-01-15T03:59:52;94054.28;;;0.45;76.85
5550;BME280;2798;42.716;23.256;2024-01-15T04:02:18;93998.53;;;0.46;77.02
5550;BME280;2798;42.716;23.256;2024-01-15T04:04:43;93980.72;;;0.48;76.63
5550;BME280;2798;42.716;23.256;2024-01-15T04:07:09;93991.88;;;0.44;76.68
5550;BME280;2798;42.716;23.256;2024-01-15T04:09:35;93977.44;;;0.46;76.91
5550;BME280;2798;42.716;23.256;2024-01-15T04:12:01;93993.31;;;0.49;76.83
5550;BME280;2798;42.716;23.256;2024-01-15T04:14:26;93979.91;;;0.47;76.64
5550;BME280;2798;42.716;23.256;2024-01-15T04:16:52;93988.06;;;0.54;77.02
5550;BME280;2798;42.716;23.256;2024-01-15T04:19:17;93965.91;;;0.40;76.38
5550;BME280;2798;42.716;23.256;2024-01-15T04:21:42;93986.28;;;0.56;76.43
5550;BME280;2798;42.716;23.256;2024-01-15T04:24:08;93968.06;;;0.48;76.81
5550;BME280;2798;42.716;23.256;2024-01-15T04:26:33;93986.28;;;0.56;76.78
5550;BME280;2798;42.716;23.256;2024-01-15T04:28:59;93976.34;;;0.52;76.41
5550;BME280;2798;42.716;23.256;2024-01-15T04:31:25;93983.88;;;0.53;76.42
5550;BME280;2798;42.716;23.256;2024-01-15T04:33:52;93963.28;;;0.42;76.25
5550;BME280;2798;42.716;23.256;2024-01-15T04:36:18;93970.47;;;0.51;76.80
5550;BME280;2798;42.716;23.256;2024-01-15T04:38:43;93986.34;;;0.55;77.00
5550;BME280;2798;42.716;23.256;2024-01-15T04:41:16;93977.78;;;0.57;76.82
5550;BME280;2798;42.716;23.256;2024-01-15T04:43:41;93962.31;;;0.44;76.39
5550;BME280;2798;42.716;23.256;2024-01-15T04:46:07;93973.41;;;0.61;75.73
5550;BME280;2798;42.716;23.256;2024-01-15T04:48:33;93950.00;;;0.36;76.45
5550;BME280;2798;42.716;23.256;2024-01-15T04:50:58;93973.69;;;0.55;77.53
5550;BME280;2798;42.716;23.256;2024-01-15T04:53:24;93967.59;;;0.59;77.14
5550;BME280;2798;42.716;23.256;2024-01-15T04:55:50;93962.72;;;0.54;76.69
5550;BME280;2798;42.716;23.256;2024-01-15T04:58:15;93952.06;;;0.47;76.89
5550;BME280;2798;42.716;23.256;2024-01-15T05:00:41;93961.91;;;0.54;77.55
5550;BME280;2798;42.716;23.256;2024-01-15T05:03:06;93951.84;;;0.52;77.02
5550;BME280;2798;42.716;23.256;2024-01-15T05:05:32;93941.25;;;0.44;76.80
5550;BME280;2798;42.716;23.256;2024-01-15T05:07:57;93939.28;;;0.31;77.63
5550;BME280;2798;42.716;23.256;2024-01-15T05:10:23;93946.91;;;0.49;77.41
5550;BME280;2798;42.716;23.256;2024-01-15T05:12:48;93944.94;;;0.36;77.12
5550;BME280;2798;42.716;23.256;2024-01-15T05:15:14;93945.03;;;0.35;77.65
5550;BME280;2798;42.716;23.256;2024-01-15T05:17:39;93951.66;;;0.38;77.14
5550;BME280;2798;42.716;23.256;2024-01-15T05:20:05;93942.50;;;0.35;77.60
5550;BME280;2798;42.716;23.256;2024-01-15T05:22:31;93963.66;;;0.52;77.16
5550;BME280;2798;42.716;23.256;2024-01-15T05:24:56;93960.19;;;0.54;76.93
5550;BME280;2798;42.716;23.256;2024-01-15T05:27:22;93944.38;;;0.49;76.79
5550;BME280;2798;42.716;23.256;2024-01-15T05:29:47;93945.06;;;0.53;77.23
5550;BME280;2798;42.716;23.256;2024-01-15T05:32:13;93944.88;;;0.57;77.09
5550;BME280;2798;42.716;23.256;2024-01-15T05:34:38;93910.44;;;0.34;76.76
5550;BME280;2798;42.716;23.256;2024-01-15T05:37:04;93948.97;;;0.60;76.09
5550;BME280;2798;42.716;23.256;2024-01-15T05:39:29;93943.91;;;0.60;76.41
5550;BME280;2798;42.716;23.256;2024-01-15T05:41:55;93932.81;;;0.63;75.76
5550;BME280;2798;42.716;23.256;2024-01-15T05:44:20;93941.22;;;0.63;76.05
5550;BME280;2798;42.716;23.256;2024-01-15T05:46:46;93907.31;;;0.48;76.75
5550;BME280;2798;42.716;23.256;2024-01-15T05:49:11;93923.72;;;0.58;76.82
5550;BME280;2798;42.716;23.256;2024-01-15T05:51:37;93926.25;;;0.58;76.96
5550;BME280;2798;42.716;23.256;2024-01-15T05:54:02;93896.84;;;0.36;76.42
5550;BME280;2798;42.716;23.256;2024-01-15T05:56:28;93937.19;;;0.59;76.75
5550;BME280;2798;42.716;23.256;2024-01-15T05:58:53;93940.50;;;0.61;76.89
5550;BME280;2798;42.716;23.256;2024-01-15T06:01:19;93934.66;;;0.59;77.05
5550;BME280;2798;42.716;23.256;2024-01-15T06:03:44;93922.38;;;0.51;77.01
5550;BME280;2798;42.716;23.256;2024-01-15T06:06:10;93941.97;;;0.65;77.00
5550;BME280;2798;42.716;23.256;2024-01-15T06:08:35;93931.59;;;0.52;77.18
5550;BME280;2798;42.716;23.256;2024-01-15T06:11:01;93931.31;;;0.58;76.43
5550;BME280;2798;42.716;23.256;2024-01-15T06:13:29;93941.66;;;0.54;76.67
5550;BME280;2798;42.716;23.256;2024-01-15T06:15:55;93935.78;;;0.53;76.69
5550;BME280;2798;42.716;23.256;2024-01-15T06:18:20;93922.28;;;0.53;77.75
5550;BME280;2798;42.716;23.256;2024-01-15T06:20:46;93920.22;;;0.61;78.00
5550;BME280;2798;42.716;23.256;2024-01-15T06:23:11;93917.56;;;0.64;77.23
5550;BME280;2798;42.716;23.256;2024-01-15T06:25:37;93923.41;;;0.65;77.38
5550;BME280;2798;42.716;23.256;2024-01-15T06:28:02;93914.41;;;0.59;77.86
5550;BME280;2798;42.716;23.256;2024-01-15T06:30:30;93933.28;;;0.71;78.15
5550;BME280;2798;42.716;23.256;2024-01-15T06:32:55;93928.69;;;0.60;78.43
5550;BME280;2798;42.716;23.256;2024-01-15T06:35:21;93942.38;;;0.75;78.22
5550;BME280;2798;42.716;23.256;2024-01-15T06:37:46;93933.81;;;0.78;77.73
5550;BME280;2798;42.716;23.256;2024-01-15T06:40:12;93938.06;;;0.77;78.37
5550;BME280;2798;42.716;23.256;2024-01-15T06:42:37;93929.13;;;0.88;77.80
5550;BME280;2798;42.716;23.256;2024-01-15T06:45:03;93929.88;;;0.90;78.12
5550;BME280;2798;42.716;23.256;2024-01-15T06:47:29;93923.38;;;0.84;77.60
5550;BME280;2798;42.716;23.256;2024-01-15T06:49:54;93927.50;;;0.86;78.07
5550;BME280;2798;42.716;23.256;2024-01-15T06:52:20;93916.81;;;0.80;77.60
5550;BME280;2798;42.716;23.256;2024-01-15T06:54:45;93920.78;;;0.85;78.10
5550;BME280;2798;42.716;23.256;2024-01-15T06:57:11;93941.28;;;0.98;78.26
5550;BME280;2798;42.716;23.256;2024-01-15T06:59:36;93940.88;;;1.08;78.09
5550;BME280;2798;42.716;23.256;2024-01-15T07:02:02;93937.88;;;1.00;78.00
5550;BME280;2798;42.716;23.256;2024-01-15T07:04:28;93927.81;;;0.98;77.44
5550;BME280;2798;42.716;23.256;2024-01-15T07:06:53;93924.97;;;1.04;77.18
5550;BME280;2798;42.716;23.256;2024-01-15T07:09:19;93935.13;;;1.22;77.21
5550;BME280;2798;42.716;23.256;2024-01-15T07:11:45;93929.81;;;1.09;78.15
5550;BME280;2798;42.716;23.256;2024-01-15T07:14:14;93967.00;;;1.08;78.52
5550;BME280;2798;42.716;23.256;2024-01-15T07:16:39;93917.97;;;1.09;77.68
5550;BME280;2798;42.716;23.256;2024-01-15T07:19:05;93935.56;;;1.13;78.12
5550;BME280;2798;42.716;23.256;2024-01-15T07:21:31;93935.94;;;1.22;78.05
5550;BME280;2798;42.716;23.256;2024-01-15T07:23:56;93933.34;;;1.24;77.42
5550;BME280;2798;42.716;23.256;2024-01-15T07:26:22;93861.25;;;0.77;77.49
5550;BME280;2798;42.716;23.256;2024-01-15T07:28:47;93931.59;;;1.25;77.41
5550;BME280;2798;42.716;23.256;2024-01-15T07:31:15;93934.97;;;1.25;78.58
5550;BME280;2798;42.716;23.256;2024-01-15T07:33:41;93916.63;;;1.20;77.87
5550;BME280;2798;42.716;23.256;2024-01-15T07:36:06;93952.88;;;1.22;78.71
5550;BME280;2798;42.716;23.256;2024-01-15T07:38:32;93929.00;;;1.26;77.47
5550;BME280;2798;42.716;23.256;2024-01-15T07:40:58;93901.03;;;1.10;78.33
5550;BME280;2798;42.716;23.256;2024-01-15T07:43:23;93917.31;;;1.23;78.46
5550;BME280;2798;42.716;23.256;2024-01-15T07:45:49;93932.75;;;1.19;78.49
5550;BME280;2798;42.716;23.256;2024-01-15T07:48:14;93924.00;;;1.25;78.54
5550;BME280;2798;42.716;23.256;2024-01-15T07:50:40;93858.72;;;0.77;77.93
5550;BME280;2798;42.716;23.256;2024-01-15T07:53:05;93939.00;;;1.29;78.61
5550;BME280;2798;42.716;23.256;2024-01-15T07:55:31;93926.69;;;1.39;78.72
5550;BME280;2798;42.716;23.256;2024-01-15T07:57:57;93898.47;;;1.45;78.48
5550;BME280;2798;42.716;23.256;2024-01-15T08:00:24;93902.38;;;1.53;77.99
5550;BME280;2798;42.716;23.256;2024-01-15T08:02:50;93907.13;;;1.59;78.59
5550;BME280;2798;42.716;23.256;2024-01-15T08:05:16;93918.59;;;1.66;78.24
5550;BME280;2798;42.716;23.256;2024-01-15T08:07:42;93928.00;;;1.64;78.50
5550;BME280;2798;42.716;23.256;2024-01-15T08:10:07;93916.44;;;1.58;78.32
5550;BME280;2798;42.716;23.256;2024-01-15T08:12:33;93996.03;;;1.73;78.02
5550;BME280;2798;42.716;23.256;2024-01-15T08:14:59;93912.88;;;1.63;78.34
5550;BME280;2798;42.716;23.256;2024-01-15T08:17:24;93927.22;;;1.80;78.37
5550;BME280;2798;42.716;23.256;2024-01-15T08:19:54;93921.25;;;1.81;78.51
5550;BME280;2798;42.716;23.256;2024-01-15T08:22:20;93937.84;;;2.04;77.75
5550;BME280;2798;42.716;23.256;2024-01-15T08:24:45;93939.31;;;2.08;78.04
5550;BME280;2798;42.716;23.256;2024-01-15T08:27:11;93929.50;;;2.02;78.06
5550;BME280;2798;42.716;23.256;2024-01-15T08:29:36;93891.91;;;1.93;78.07
5550;BME280;2798;42.716;23.256;2024-01-15T08:32:02;93918.53;;;2.18;77.09
5550;BME280;2798;42.716;23.256;2024-01-15T08:34:27;93917.47;;;2.22;77.96
5550;BME280;2798;42.716;23.256;2024-01-15T08:36:54;93908.28;;;2.19;77.59
5550;BME280;2798;42.716;23.256;2024-01-15T08:39:19;93902.91;;;2.26;78.12
5550;BME280;2798;42.716;23.256;2024-01-15T08:41:45;93914.69;;;2.43;77.78
5550;BME280;2798;42.716;23.256;2024-01-15T08:44:12;93873.41;;;2.23;77.35
5550;BME280;2798;42.716;23.256;2024-01-15T08:46:37;93922.66;;;2.53;77.16
5550;BME280;2798;42.716;23.256;2024-01-15T08:49:03;93920.28;;;2.50;77.28
5550;BME280;2798;42.716;23.256;2024-01-15T08:51:29;93896.34;;;2.54;76.73
5550;BME280;2798;42.716;23.256;2024-01-15T08:53:56;93885.41;;;2.68;77.19
5550;BME280;2798;42.716;23.256;2024-01-15T08:56:22;93886.72;;;2.75;76.42
5550;BME280;2798;42.716;23.256;2024-01-15T08:58:47;93883.84;;;2.81;76.70
5550;BME280;2798;42.716;23.256;2024-01-15T09:01:13;93887.84;;;2.86;76.86
5550;BME280;2798;42.716;23.256;2024-01-15T09:03:40;93889.06;;;2.94;76.70
5550;BME280;2798;42.716;23.256;2024-01-15T09:06:07;93868.47;;;2.99;76.91
5550;BME280;2798;42.716;23.256;2024-01-15T09:08:33;93837.25;;;3.12;76.03
5550;BME280;2798;42.716;23.256;2024-01-15T09:10:58;93846.97;;;3.19;76.36
5550;BME280;2798;42.716;23.256;2024-01-15T09:13:24;93836.44;;;3.26;75.59
5550;BME280;2798;42.716;23.256;2024-01-15T09:15:49;93851.28;;;3.33;76.30
5550;BME280;2798;42.716;23.256;2024-01-15T09:18:15;93842.66;;;3.36;75.99
5550;BME280;2798;42.716;23.256;2024-01-15T09:20:40;93824.31;;;3.45;75.58
5550;BME280;2798;42.716;23.256;2024-01-15T09:23:06;93831.09;;;3.59;74.75
5550;BME280;2798;42.716;23.256;2024-01-15T09:25:31;93823.75;;;3.69;74.57
5550;BME280;2798;42.716;23.256;2024-01-15T09:27:57;93831.84;;;3.76;74.06
5550;BME280;2798;42.716;23.256;2024-01-15T09:30:23;93827.38;;;3.80;74.32
5550;BME280;2798;42.716;23.256;2024-01-15T09:32:48;93814.94;;;3.90;73.71
5550;BME280;2798;42.716;23.256;2024-01-15T09:35:14;93813.56;;;3.84;73.12
5550;BME280;2798;42.716;23.256;2024-01-15T09:37:40;93814.00;;;3.91;73.93
5550;BME280;2798;42.716;23.256;2024-01-15T09:40:06;93806.56;;;3.88;73.23
5550;BME280;2798;42.716;23.256;2024-01-15T09:42:34;93805.72;;;4.02;73.66
5550;BME280;2798;42.716;23.256;2024-01-15T09:45:01;93787.97;;;4.00;73.08
5550;BME280;2798;42.716;23.256;2024-01-15T09:47:28;93787.59;;;4.06;72.88
5550;BME280;2798;42.716;23.256;2024-01-15T09:49:54;93766.78;;;4.14;73.10
5550;BME280;2798;42.716;23.256;2024-01-15T09:52:23;93785.09;;;4.19;73.00
5550;BME280;2798;42.716;23.256;2024-01-15T09:54:49;93761.69;;;4.27;71.68
5550;BME280;2798;42.716;23.256;2024-01-15T09:57:16;93779.53;;;4.27;72.43
5550;BME280;2798;42.716;23.256;2024-01-15T09:59:42;93757.22;;;4.31;71.55
5550;BME280;2798;42.716;23.256;2024-01-15T10:02:09;93762.97;;;4.35;71.12
5550;BME280;2798;42.716;23.256;2024-01-15T10:04:39;93790.97;;;4.35;71.35
5550;BME280;2798;42.716;23.256;2024-01-15T10:07:06;93761.34;;;4.33;71.60
5550;BME280;2798;42.716;23.256;2024-01-15T10:09:33;93737.97;;;4.27;71.56
5550;BME280;2798;42.716;23.256;2024-01-15T10:11:59;93729.75;;;4.36;71.21
5550;BME280;2798;42.716;23.256;2024-01-15T10:14:24;93742.41;;;4.51;71.59
5550;BME280;2798;42.716;23.256;2024-01-15T10:16:50;93749.84;;;4.54;71.36
5550;BME280;2798;42.716;23.256;2024-01-15T10:19:15;93698.56;;;4.45;72.35
5550;BME280;2798;42.716;23.256;2024-01-15T10:21:41;93724.28;;;4.55;71.91
5550;BME280;2798;42.716;23.256;2024-01-15T10:24:06;93723.34;;;4.56;71.62
5550;BME280;2798;42.716;23.256;2024-01-15T10:26:32;93727.25;;;4.62;71.45
5550;BME280;2798;42.716;23.256;2024-01-15T10:29:01;93655.66;;;4.26;71.58
5550;BME280;2798;42.716;23.256;2024-01-15T10:31:27;93715.81;;;4.68;72.28
5550;BME280;2798;42.716;23.256;2024-01-15T10:33:53;93707.78;;;4.74;71.90
5550;BME280;2798;42.716;23.256;2024-01-15T10:36:19;93687.28;;;4.76;71.93
5550;BME280;2798;42.716;23.256;2024-01-15T10:38:45;93700.13;;;4.87;71.69
5550;BME280;2798;42.716;23.256;2024-01-15T10:41:11;93712.06;;;4.87;71.56
5550;BME280;2798;42.716;23.256;2024-01-15T10:43:37;93668.00;;;4.72;71.62
5550;BME280;2798;42.716;23.256;2024-01-15T10:46:03;93678.53;;;4.80;71.53
5550;BME280;2798;42.716;23.256;2024-01-15T10:48:30;93683.81;;;4.90;71.39
5550;BME280;2798;42.716;23.256;2024-01-15T10:50:57;93677.38;;;4.97;71.15
5550;BME280;2798;42.716;23.256;2024-01-15T10:53:24;93675.56;;;4.99;71.23
5550;BME280;2798;42.716;23.256;2024-01-15T10:55:53;93688.81;;;5.04;70.99
5550;BME280;2798;42.716;23.256;2024-01-15T10:58:20;93681.97;;;5.05;71.58
5550;BME280;2798;42.716;23.256;2024-01-15T11:00:46;93617.66;;;4.75;71.26
5550;BME280;2798;42.716;23.256;2024-01-15T11:03:12;93680.00;;;5.22;71.59
5550;BME280;2798;42.716;23.256;2024-01-15T11:05:41;93664.28;;;5.28;70.65
5550;BME280;2798;42.716;23.256;2024-01-15T11:08:10;93655.91;;;5.26;70.74
5550;BME280;2798;42.716;23.256;2024-01-15T11:10:47;93675.91;;;5.32;70.44
5550;BME280;2798;42.716;23.256;2024-01-15T11:18:42;93682.31;;;5.38;70.26
5550;BME280;2798;42.716;23.256;2024-01-15T11:26:33;93642.47;;;5.48;70.16
5550;BME280;2798;42.716;23.256;2024-01-15T11:29:00;93646.69;;;5.49;69.76
5550;BME280;2798;42.716;23.256;2024-01-15T11:31:56;93631.97;;;5.53;70.39
5550;BME280;2798;42.716;23.256;2024-01-15T11:34:16;93624.03;;;5.44;69.93
5550;BME280;2798;42.716;23.256;2024-01-15T11:42:00;93637.22;;;5.63;69.94
5550;BME280;2798;42.716;23.256;2024-01-15T11:44:27;93641.41;;;5.64;70.14
5550;BME280;2798;42.716;23.256;2024-01-15T11:47:29;93625.88;;;5.67;70.22
5550;BME280;2798;42.716;23.256;2024-01-15T11:50:03;93616.34;;;5.57;70.11
5550;BME280;2798;42.716;23.256;2024-01-15T11:52:35;93608.41;;;5.74;69.79
5550;BME280;2798;42.716;23.256;2024-01-15T11:55:10;93589.31;;;5.66;69.38
5550;BME280;2798;42.716;23.256;2024-01-15T12:00:05;93588.69;;;5.51;70.04
5550;BME280;2798;42.716;23.256;2024-01-15T12:02:32;93615.56;;;5.68;70.32
5550;BME280;2798;42.716;23.256;2024-01-15T12:04:58;93615.78;;;5.65;70.23
5550;BME280;2798;42.716;23.256;2024-01-15T12:07:23;93608.56;;;5.59;70.17
5550;BME280;2798;42.716;23.256;2024-01-15T12:09:49;93608.69;;;5.57;70.73
5550;BME280;2798;42.716;23.256;2024-01-15T12:12:22;93599.59;;;5.53;70.70
5550;BME280;2798;42.716;23.256;2024-01-15T12:14:50;93613.06;;;5.55;70.90
5550;BME280;2798;42.716;23.256;2024-01-15T12:17:16;93591.94;;;5.53;71.13
5550;BME280;2798;42.716;23.256;2024-01-15T12:19:43;93589.28;;;5.55;70.66
5550;BME280;2798;42.716;23.256;2024-01-15T12:22:09;93594.38;;;5.55;70.60
5550;BME280;2798;42.716;23.256;2024-01-15T12:24:34;93579.06;;;5.55;69.54
5550;BME280;2798;42.716;23.256;2024-01-15T12:27:00;93581.72;;;5.53;70.43
5550;BME280;2798;42.716;23.256;2024-01-15T12:29:26;93581.72;;;5.53;70.58
5550;BME280;2798;42.716;23.256;2024-01-15T12:31:53;93563.38;;;5.48;70.12
5550;BME280;2798;42.716;23.256;2024-01-15T12:34:19;93556.44;;;5.50;70.11
5550;BME280;2798;42.716;23.256;2024-01-15T12:36:48;93560.19;;;5.57;70.57
5550;BME280;2798;42.716;23.256;2024-01-15T12:39:13;93511.28;;;5.15;69.93
5550;BME280;2798;42.716;23.256;2024-01-15T12:41:41;93545.72;;;5.45;69.92
5550;BME280;2798;42.716;23.256;2024-01-15T12:44:06;93563.75;;;5.55;70.44
5550;BME280;2798;42.716;23.256;2024-01-15T12:46:32;93522.13;;;5.30;70.62
5550;BME280;2798;42.716;23.256;2024-01-15T12:48:57;93553.28;;;5.47;70.33
5550;BME280;2798;42.716;23.256;2024-01-15T12:51:26;93549.31;;;5.42;71.55
5550;BME280;2798;42.716;23.256;2024-01-15T12:53:53;93546.38;;;5.36;71.65
5550;BME280;2798;42.716;23.256;2024-01-15T12:56:18;93531.41;;;5.31;69.94
5550;BME280;2798;42.716;23.256;2024-01-15T12:58:44;93552.09;;;5.39;71.11
5550;BME280;2798;42.716;23.256;2024-01-15T13:01:09;93534.06;;;5.29;71.50
5550;BME280;2798;42.716;23.256;2024-01-15T13:03:35;93532.44;;;5.28;71.38
5550;BME280;2798;42.716;23.256;2024-01-15T13:06:01;93516.44;;;5.26;71.51
5550;BME280;2798;42.716;23.256;2024-01-15T13:08:26;93536.41;;;5.32;71.60
5550;BME280;2798;42.716;23.256;2024-01-15T13:10:53;93546.50;;;5.34;71.56
5550;BME280;2798;42.716;23.256;2024-01-15T13:13:22;93541.50;;;5.32;71.71
5550;BME280;2798;42.716;23.256;2024-01-15T13:15:47;93538.13;;;5.32;71.99
5550;BME280;2798;42.716;23.256;2024-01-15T13:18:12;93539.38;;;5.26;72.60
5550;BME280;2798;42.716;23.256;2024-01-15T13:20:38;93526.53;;;5.28;71.59
5550;BME280;2798;42.716;23.256;2024-01-15T13:23:03;93526.53;;;5.28;72.14
5550;BME280;2798;42.716;23.256;2024-01-15T13:25:29;93542.44;;;5.31;72.15
5550;BME280;2798;42.716;23.256;2024-01-15T13:27:55;93543.44;;;5.29;73.00
5550;BME280;2798;42.716;23.256;2024-01-15T13:30:20;93497.06;;;5.24;72.67
5550;BME280;2798;42.716;23.256;2024-01-15T13:32:46;93516.53;;;5.25;72.42
5550;BME280;2798;42.716;23.256;2024-01-15T13:35:12;93526.53;;;5.28;72.31
5550;BME280;2798;42.716;23.256;2024-01-15T13:37:39;93517.94;;;5.29;72.79